createdAt,value
2023-05-14T00:00:28.038Z,101041.98
2023-05-14T00:03:19.756Z,101040.69
2023-05-14T00:05:52.165Z,101034.56
2023-05-14T00:08:23.816Z,101033.54
2023-05-14T00:10:56.080Z,101040.26
2023-05-14T00:13:28.746Z,101039.16
2023-05-14T00:16:00.561Z,101033.66
2023-05-14T00:18:32.483Z,101038.52
2023-05-14T00:21:04.340Z,101038.88
2023-05-14T00:23:36.465Z,101036.67
2023-05-14T00:26:08.362Z,101032.98
2023-05-14T00:28:40.151Z,101035.42
2023-05-14T00:31:11.892Z,101031.91
2023-05-14T00:33:43.725Z,101031.70
2023-05-14T00:36:15.654Z,101036.72
2023-05-14T00:38:47.381Z,101033.94
2023-05-14T00:41:19.298Z,101033.82
2023-05-14T00:43:51.040Z,101034.21
2023-05-14T00:46:22.884Z,101036.36
2023-05-14T00:48:56.641Z,101030.91
2023-05-14T00:51:27.030Z,101033.80
2023-05-14T00:53:58.990Z,101030.41
2023-05-14T00:56:30.999Z,101031.79
2023-05-14T00:59:02.896Z,101030.62
2023-05-14T01:01:34.790Z,101033.06
2023-05-14T01:04:08.404Z,101028.01
2023-05-14T01:06:48.458Z,101031.07
2023-05-14T01:09:26.287Z,101032.27
2023-05-14T01:12:06.774Z,101027.96
2023-05-14T01:14:45.072Z,101030.25
2023-05-14T01:17:20.074Z,101026.30
2023-05-14T01:19:53.484Z,101024.95
2023-05-14T01:22:25.661Z,101024.80
2023-05-14T01:24:57.682Z,101025.02
2023-05-14T01:27:36.045Z,101015.70
2023-05-14T01:30:15.149Z,101012.56
2023-05-14T01:32:49.265Z,101009.09
2023-05-14T01:35:23.403Z,101007.87
2023-05-14T01:37:57.142Z,101009.66
2023-05-14T01:40:30.742Z,101005.08
2023-05-14T01:43:03.348Z,101007.62
2023-05-14T01:45:37.823Z,100999.41
2023-05-14T01:48:09.794Z,100998.48
2023-05-14T01:50:41.722Z,100996.63
2023-05-14T01:53:13.524Z,100996.80
2023-05-14T01:55:46.464Z,100995.56
2023-05-14T01:58:19.900Z,100992.63
2023-05-14T02:00:51.591Z,100989.20
2023-05-14T02:03:23.906Z,100988.73
2023-05-14T02:05:55.980Z,100984.64
2023-05-14T02:08:27.709Z,100984.21
2023-05-14T02:10:59.466Z,100985.48
2023-05-14T02:13:31.123Z,100982.09
2023-05-14T02:16:03.331Z,100979.60
2023-05-14T02:18:35.001Z,100975.25
2023-05-14T02:21:07.300Z,100974.58
2023-05-14T02:23:41.928Z,100972.55
2023-05-14T02:26:14.328Z,100970.13
2023-05-14T02:28:46.538Z,100973.33
2023-05-14T02:31:19.284Z,100970.70
2023-05-14T02:33:51.079Z,100965.70
2023-05-14T02:36:22.827Z,100967.20
2023-05-14T02:38:54.460Z,100961.39
2023-05-14T02:41:26.902Z,100962.55
2023-05-14T02:43:58.579Z,100959.46
2023-05-14T02:46:31.560Z,100954.84
2023-05-14T02:49:03.925Z,100963.97
2023-05-14T02:51:36.049Z,100961.11
2023-05-14T02:54:08.033Z,100956.34
2023-05-14T02:56:39.686Z,100956.15
2023-05-14T02:59:11.646Z,100953.59
2023-05-14T03:01:43.803Z,100951.60
2023-05-14T03:04:16.489Z,100955.23
2023-05-14T03:06:48.219Z,100958.41
2023-05-14T03:09:19.877Z,100966.00
2023-05-14T03:11:52.050Z,100957.18
2023-05-14T03:14:23.698Z,100972.63
2023-05-14T03:16:55.646Z,100973.12
2023-05-14T03:19:27.462Z,100973.09
2023-05-14T03:21:59.280Z,100969.52
2023-05-14T03:24:31.532Z,100967.69
2023-05-14T03:27:03.295Z,100973.03
2023-05-14T03:29:35.105Z,100969.84
2023-05-14T03:32:08.095Z,100969.83
2023-05-14T03:34:39.967Z,100967.27
2023-05-14T03:37:12.032Z,100969.52
2023-05-14T03:39:43.822Z,100972.65
2023-05-14T03:42:15.841Z,100971.34
2023-05-14T03:44:47.711Z,100968.55
2023-05-14T03:47:20.445Z,100969.73
2023-05-14T03:49:52.219Z,100965.98
2023-05-14T03:52:24.679Z,100971.30
2023-05-14T03:54:56.290Z,100967.42
2023-05-14T03:57:27.991Z,100961.24
2023-05-14T04:00:01.218Z,100960.52
2023-05-14T04:02:33.155Z,100962.27
2023-05-14T04:05:05.469Z,100966.31
2023-05-14T04:07:37.817Z,100967.38
2023-05-14T04:10:11.518Z,100971.94
2023-05-14T04:12:44.003Z,100973.48
2023-05-14T04:15:15.838Z,100972.27
2023-05-14T04:17:48.089Z,100972.38
2023-05-14T04:20:20.126Z,100965.55
2023-05-14T04:22:51.749Z,100964.49
2023-05-14T04:25:24.076Z,100967.85
2023-05-14T04:27:55.722Z,100956.75
2023-05-14T04:30:27.718Z,100960.95
2023-05-14T04:32:59.433Z,100956.80
2023-05-14T04:35:31.207Z,100960.33
2023-05-14T04:38:03.031Z,100963.75
2023-05-14T04:40:34.768Z,100960.11
2023-05-14T04:43:06.651Z,100958.06
2023-05-14T04:45:38.322Z,100956.20
2023-05-14T04:48:11.016Z,100958.79
2023-05-14T04:50:43.752Z,100954.19
2023-05-14T04:53:14.028Z,100956.45
2023-05-14T04:55:45.769Z,100961.21
2023-05-14T04:58:17.605Z,100957.49
2023-05-14T05:00:49.360Z,100958.33
2023-05-14T05:03:21.248Z,100958.00
2023-05-14T05:05:53.003Z,100957.52
2023-05-14T05:08:24.758Z,100952.52
2023-05-14T05:10:56.415Z,100952.94
2023-05-14T05:13:28.099Z,100956.73
2023-05-14T05:16:00.003Z,100956.45
2023-05-14T05:18:32.309Z,100953.80
2023-05-14T05:21:04.150Z,100951.98
2023-05-14T05:23:36.101Z,100951.91
2023-05-14T05:26:07.865Z,100951.71
2023-05-14T05:28:40.137Z,100951.95
2023-05-14T05:31:12.182Z,100950.70
2023-05-14T05:33:44.114Z,100952.42
2023-05-14T05:36:15.773Z,100950.54
2023-05-14T05:38:47.514Z,100950.15
2023-05-14T05:41:19.266Z,100947.86
2023-05-14T05:43:51.046Z,100946.56
2023-05-14T05:46:22.814Z,100944.08
2023-05-14T05:48:55.009Z,100940.41
2023-05-14T05:51:26.702Z,100938.64
2023-05-14T05:53:58.454Z,100939.73
2023-05-14T05:56:30.779Z,100938.73
2023-05-14T05:59:04.048Z,100940.36
2023-05-14T06:01:36.218Z,100942.15
2023-05-14T06:04:08.638Z,100941.91
2023-05-14T06:06:39.105Z,100939.86
2023-05-14T06:09:11.358Z,100940.04
2023-05-14T06:11:43.035Z,100937.35
2023-05-14T06:14:14.845Z,100935.70
2023-05-14T06:16:46.610Z,100931.98
2023-05-14T06:19:18.600Z,100928.86
2023-05-14T06:21:50.433Z,100927.55
2023-05-14T06:24:22.254Z,100929.77
2023-05-14T06:26:54.376Z,100923.71
2023-05-14T06:29:26.311Z,100922.61
2023-05-14T06:32:05.615Z,100925.19
2023-05-14T06:34:37.442Z,100927.77
2023-05-14T06:37:09.533Z,100928.37
2023-05-14T06:39:44.111Z,100930.77
2023-05-14T06:42:15.815Z,100931.95
2023-05-14T06:44:47.974Z,100930.76
2023-05-14T06:47:20.116Z,100933.92
2023-05-14T06:49:55.919Z,100931.66
2023-05-14T06:52:27.972Z,100929.61
2023-05-14T06:54:59.770Z,100928.77
2023-05-14T06:57:35.545Z,100931.27
2023-05-14T07:00:10.832Z,100926.38
2023-05-14T07:02:42.758Z,100922.09
2023-05-14T07:05:14.763Z,100916.07
2023-05-14T07:07:46.551Z,100910.44
2023-05-14T07:10:18.822Z,100914.88
2023-05-14T07:12:51.970Z,100909.36
2023-05-14T07:15:23.691Z,100904.33
2023-05-14T07:17:55.683Z,100903.79
2023-05-14T07:20:27.742Z,100901.16
2023-05-14T07:22:59.897Z,100897.48
2023-05-14T07:25:32.622Z,100894.02
2023-05-14T07:28:02.944Z,100893.52
2023-05-14T07:30:34.712Z,100890.55
2023-05-14T07:33:07.037Z,100889.84
2023-05-14T07:35:39.363Z,100889.56
2023-05-14T07:38:11.208Z,100884.54
2023-05-14T07:40:43.376Z,100878.48
2023-05-14T07:43:15.110Z,100877.33
2023-05-14T07:45:48.026Z,100877.92
2023-05-14T07:48:19.873Z,100871.87
2023-05-14T07:50:52.432Z,100872.94
2023-05-14T07:53:24.961Z,100869.23
2023-05-14T07:55:55.279Z,100863.65
2023-05-14T07:58:27.752Z,100865.81
2023-05-14T08:01:01.366Z,100866.89
2023-05-14T08:03:33.192Z,100865.56
2023-05-14T08:06:05.080Z,100866.94
2023-05-14T08:08:36.878Z,100860.05
2023-05-14T08:11:09.050Z,100852.66
2023-05-14T08:13:41.480Z,100854.65
2023-05-14T08:16:13.321Z,100848.08
2023-05-14T08:18:45.083Z,100853.77
2023-05-14T08:21:16.965Z,100845.11
2023-05-14T08:23:48.737Z,100851.36
2023-05-14T08:26:21.627Z,100846.92
2023-05-14T08:28:53.870Z,100845.95
2023-05-14T08:31:25.633Z,100847.52
2023-05-14T08:33:57.426Z,100850.55
2023-05-14T08:36:29.230Z,100846.83
2023-05-14T08:39:01.166Z,100847.08
2023-05-14T08:41:33.160Z,100845.45
2023-05-14T08:44:13.559Z,100850.30
2023-05-14T08:46:45.533Z,100848.58
2023-05-14T08:49:30.037Z,100847.40
2023-05-14T08:52:02.763Z,100846.12
2023-05-14T08:54:32.958Z,100841.33
2023-05-14T08:57:06.117Z,100835.04
2023-05-14T08:59:38.036Z,100833.95
2023-05-14T09:02:15.316Z,100835.21
2023-05-14T09:04:48.584Z,100834.42
2023-05-14T09:07:21.204Z,100835.38
2023-05-14T09:09:54.156Z,100832.95
2023-05-14T09:12:26.174Z,100830.64
2023-05-14T09:14:57.915Z,100830.48
2023-05-14T09:17:29.913Z,100832.21
2023-05-14T09:20:02.332Z,100830.79
2023-05-14T09:22:35.938Z,100830.14
2023-05-14T09:25:11.914Z,100829.19
2023-05-14T09:27:43.768Z,100827.54
2023-05-14T09:30:17.037Z,100828.56
2023-05-14T09:32:50.566Z,100828.60
2023-05-14T09:35:24.258Z,100829.27
2023-05-14T09:37:56.970Z,100823.06
2023-05-14T09:40:27.438Z,100818.27
2023-05-14T09:43:01.896Z,100818.03
2023-05-14T09:45:33.924Z,100818.83
2023-05-14T09:48:06.610Z,100818.33
2023-05-14T09:50:44.549Z,100812.91
2023-05-14T09:53:17.629Z,100807.48
2023-05-14T09:55:50.717Z,100807.77
2023-05-14T09:58:22.533Z,100803.16
2023-05-14T10:00:58.393Z,100800.25
2023-05-14T10:03:31.895Z,100796.95
2023-05-14T10:06:08.709Z,100788.47
2023-05-14T10:08:44.950Z,100779.91
2023-05-14T10:11:21.451Z,100779.40
2023-05-14T10:13:59.929Z,100771.71
2023-05-14T10:16:35.260Z,100771.31
2023-05-14T10:19:09.539Z,100760.79
2023-05-14T10:21:46.078Z,100755.64
2023-05-14T10:24:19.382Z,100755.35
2023-05-14T10:26:51.349Z,100750.66
2023-05-14T10:29:32.378Z,100750.89
2023-05-14T10:32:07.443Z,100751.05
2023-05-14T10:34:42.478Z,100747.33
2023-05-14T10:37:15.891Z,100737.54
2023-05-14T10:39:50.723Z,100735.45
2023-05-14T10:42:25.776Z,100730.61
2023-05-14T10:44:59.053Z,100725.77
2023-05-14T10:47:32.151Z,100721.02
2023-05-14T10:50:07.081Z,100718.61
2023-05-14T10:52:39.455Z,100716.30
2023-05-14T10:55:14.180Z,100709.38
2023-05-14T10:57:47.530Z,100714.39
2023-05-14T11:00:20.758Z,100702.77
2023-05-14T11:02:57.549Z,100696.74
2023-05-14T11:05:29.416Z,100692.00
2023-05-14T11:08:04.343Z,100684.55
2023-05-14T11:10:36.771Z,100686.92
2023-05-14T11:13:08.436Z,100681.39
2023-05-14T11:15:47.133Z,100672.35
2023-05-14T11:18:30.931Z,100681.31
2023-05-14T11:21:03.207Z,100679.04
2023-05-14T11:23:35.343Z,100672.96
2023-05-14T11:26:08.018Z,100669.04
2023-05-14T11:28:39.945Z,100662.52
2023-05-14T11:31:12.813Z,100660.98
2023-05-14T11:33:45.152Z,100656.30
2023-05-14T11:36:16.884Z,100656.20
2023-05-14T11:38:52.322Z,100650.69
2023-05-14T11:41:24.541Z,100649.48
2023-05-14T11:43:56.371Z,100647.08
2023-05-14T11:46:30.126Z,100645.19
2023-05-14T11:49:04.766Z,100640.66
2023-05-14T11:51:37.193Z,100638.98
2023-05-14T11:54:08.979Z,100628.86
2023-05-14T11:56:40.862Z,100625.44
2023-05-14T11:59:13.596Z,100621.42
2023-05-14T12:01:48.071Z,100620.66
2023-05-14T12:04:22.745Z,100624.47
2023-05-14T12:06:55.794Z,100626.59
2023-05-14T12:09:28.250Z,100627.05
2023-05-14T12:11:58.565Z,100621.45
2023-05-14T12:14:30.327Z,100624.77
2023-05-14T12:17:04.351Z,100616.39
2023-05-14T12:19:40.516Z,100610.56
2023-05-14T12:22:14.632Z,100611.30
2023-05-14T12:24:55.860Z,100609.13
2023-05-14T12:27:29.539Z,100601.66
2023-05-14T12:32:41.597Z,100596.48
2023-05-14T12:35:13.631Z,100592.69
2023-05-14T12:37:45.462Z,100592.71
2023-05-14T12:40:17.455Z,100590.77
2023-05-14T12:42:49.310Z,100586.06
2023-05-14T12:45:21.121Z,100582.32
2023-05-14T12:47:54.822Z,100583.48
2023-05-14T12:50:27.004Z,100576.98
2023-05-14T12:52:58.876Z,100572.33
2023-05-14T12:55:30.944Z,100572.20
2023-05-14T12:58:04.398Z,100568.16
2023-05-14T13:00:39.835Z,100574.20
2023-05-14T13:03:12.996Z,100567.92
2023-05-14T13:05:46.572Z,100567.10
2023-05-14T13:08:21.583Z,100567.23
2023-05-14T13:10:53.694Z,100568.34
2023-05-14T13:13:26.257Z,100563.07
2023-05-14T13:15:58.083Z,100570.17
2023-05-14T13:18:29.889Z,100563.31
2023-05-14T13:21:04.296Z,100558.71
2023-05-14T13:23:36.063Z,100559.05
2023-05-14T13:26:08.463Z,100548.99
2023-05-14T13:28:40.246Z,100553.46
2023-05-14T13:31:14.445Z,100553.85
2023-05-14T13:33:46.790Z,100549.20
2023-05-14T13:36:18.473Z,100546.81
2023-05-14T13:38:50.287Z,100547.95
2023-05-14T13:41:23.523Z,100545.74
2023-05-14T13:43:55.358Z,100550.19
2023-05-14T13:46:27.228Z,100548.19
2023-05-14T13:48:59.052Z,100546.56
2023-05-14T13:51:31.350Z,100542.36
2023-05-14T13:54:03.316Z,100541.02
2023-05-14T13:56:35.536Z,100538.76
2023-05-14T13:59:07.339Z,100536.13
2023-05-14T14:01:39.089Z,100535.52
2023-05-14T14:04:10.989Z,100533.34
2023-05-14T14:06:43.011Z,100531.89
2023-05-14T14:09:14.792Z,100530.27
2023-05-14T14:11:46.674Z,100526.91
2023-05-14T14:14:19.057Z,100531.31
2023-05-14T14:16:50.833Z,100527.93
2023-05-14T14:19:22.911Z,100526.55
2023-05-14T14:21:54.727Z,100522.27
2023-05-14T14:24:26.537Z,100522.83
2023-05-14T14:26:58.278Z,100522.35
2023-05-14T14:29:31.128Z,100514.64
2023-05-14T14:32:03.178Z,100508.06
2023-05-14T14:34:35.184Z,100509.22
2023-05-14T14:37:07.296Z,100508.20
2023-05-14T14:39:39.228Z,100508.77
2023-05-14T14:42:11.181Z,100512.67
2023-05-14T14:44:42.954Z,100511.17
2023-05-14T14:47:14.856Z,100507.44
2023-05-14T14:49:48.811Z,100503.80
2023-05-14T14:52:20.942Z,100500.36
2023-05-14T14:54:53.131Z,100498.52
2023-05-14T14:57:25.135Z,100496.36
2023-05-14T14:59:56.870Z,100491.66
2023-05-14T15:02:28.900Z,100490.02
2023-05-14T15:05:01.081Z,100484.67
2023-05-14T15:07:33.337Z,100481.67
2023-05-14T15:10:05.695Z,100478.77
2023-05-14T15:12:37.512Z,100479.45
2023-05-14T15:15:12.308Z,100477.42
2023-05-14T15:17:44.450Z,100476.52
2023-05-14T15:20:16.756Z,100467.60
2023-05-14T15:22:49.107Z,100463.58
2023-05-14T15:25:21.857Z,100457.14
2023-05-14T15:27:54.065Z,100459.79
2023-05-14T15:30:25.885Z,100460.89
2023-05-14T15:32:58.083Z,100456.72
2023-05-14T15:35:29.908Z,100456.40
2023-05-14T15:38:01.612Z,100447.88
2023-05-14T15:40:35.039Z,100450.26
2023-05-14T15:43:07.128Z,100450.08
2023-05-14T15:45:38.905Z,100447.55
2023-05-14T15:48:10.766Z,100450.38
2023-05-14T15:50:43.245Z,100448.61
2023-05-14T15:53:13.451Z,100442.12
2023-05-14T15:55:46.206Z,100447.59
2023-05-14T15:58:17.924Z,100448.99
2023-05-14T16:00:50.116Z,100438.80
2023-05-14T16:03:21.852Z,100435.18
2023-05-14T16:05:53.616Z,100432.89
2023-05-14T16:08:25.804Z,100430.05
2023-05-14T16:10:57.610Z,100429.54
2023-05-14T16:13:29.385Z,100427.97
2023-05-14T16:16:01.246Z,100427.28
2023-05-14T16:18:33.847Z,100424.08
2023-05-14T16:21:04.400Z,100417.05
2023-05-14T16:23:36.730Z,100413.50
2023-05-14T16:26:09.237Z,100414.02
2023-05-14T16:28:42.754Z,100417.33
2023-05-14T16:31:15.382Z,100418.46
2023-05-14T16:33:47.224Z,100409.58
2023-05-14T16:36:19.164Z,100411.09
2023-05-14T16:39:06.687Z,100404.58
2023-05-14T16:41:39.814Z,100398.71
2023-05-14T16:44:11.654Z,100392.20
2023-05-14T16:46:43.435Z,100392.80
2023-05-14T16:49:15.280Z,100388.28
2023-05-14T16:51:48.761Z,100381.30
2023-05-14T16:54:20.669Z,100380.23
2023-05-14T16:56:52.554Z,100380.16
2023-05-14T16:59:25.145Z,100375.27
2023-05-14T17:01:57.474Z,100377.70
2023-05-14T17:04:29.476Z,100376.00
2023-05-14T17:07:02.112Z,100374.80
2023-05-14T17:09:34.815Z,100378.53
2023-05-14T17:12:07.510Z,100378.56
2023-05-14T17:14:39.401Z,100376.94
2023-05-14T17:17:11.389Z,100380.44
2023-05-14T17:19:43.183Z,100376.85
2023-05-14T17:22:15.521Z,100383.02
2023-05-14T17:24:47.973Z,100377.98
2023-05-14T17:27:19.767Z,100376.85
2023-05-14T17:29:51.927Z,100380.09
2023-05-14T17:32:23.855Z,100379.38
2023-05-14T17:34:56.361Z,100372.32
2023-05-14T17:37:28.693Z,100376.30
2023-05-14T17:40:00.570Z,100377.34
2023-05-14T17:42:32.696Z,100375.61
2023-05-14T17:45:05.230Z,100374.30
2023-05-14T17:47:35.484Z,100376.01
2023-05-14T17:50:10.282Z,100374.38
2023-05-14T17:52:44.165Z,100376.54
2023-05-14T17:55:17.380Z,100378.37
2023-05-14T17:57:49.310Z,100382.63
2023-05-14T18:00:21.909Z,100378.04
2023-05-14T18:02:52.198Z,100379.02
2023-05-14T18:05:24.666Z,100379.07
2023-05-14T18:07:58.312Z,100377.44
2023-05-14T18:10:30.473Z,100382.73
2023-05-14T18:13:02.309Z,100379.75
2023-05-14T18:15:34.407Z,100384.19
2023-05-14T18:18:05.849Z,100385.43
2023-05-14T18:20:37.690Z,100391.00
2023-05-14T18:23:09.435Z,100390.05
2023-05-14T18:25:41.751Z,100393.98
2023-05-14T18:28:13.660Z,100394.71
2023-05-14T18:30:45.703Z,100396.38
2023-05-14T18:33:18.217Z,100395.06
2023-05-14T18:35:49.983Z,100398.63
2023-05-14T18:38:21.742Z,100397.23
2023-05-14T18:40:53.533Z,100397.26
2023-05-14T18:43:26.131Z,100402.07
2023-05-14T18:45:56.489Z,100401.98
2023-05-14T18:48:28.674Z,100402.52
2023-05-14T18:51:01.064Z,100401.33
2023-05-14T18:53:33.368Z,100398.80
2023-05-14T18:56:05.577Z,100399.17
2023-05-14T18:58:37.354Z,100397.64
2023-05-14T19:01:09.313Z,100402.48
2023-05-14T19:03:42.125Z,100401.64
2023-05-14T19:06:14.165Z,100401.89
2023-05-14T19:08:46.399Z,100396.08
2023-05-14T19:11:18.713Z,100390.45
2023-05-14T19:13:50.441Z,100388.27
2023-05-14T19:16:23.170Z,100385.13
2023-05-14T19:18:55.070Z,100391.73
2023-05-14T19:21:26.880Z,100390.41
2023-05-14T19:23:58.589Z,100389.91
2023-05-14T19:26:30.505Z,100393.91
2023-05-14T19:29:02.638Z,100390.04
2023-05-14T19:31:34.568Z,100393.40
2023-05-14T19:34:06.397Z,100388.64
2023-05-14T19:36:38.233Z,100385.73
2023-05-14T19:39:10.493Z,100383.44
2023-05-14T19:41:42.209Z,100382.65
2023-05-14T19:44:13.916Z,100378.17
2023-05-14T19:46:45.659Z,100376.06
2023-05-14T19:49:17.596Z,100377.88
2023-05-14T19:51:49.434Z,100374.05
2023-05-14T19:54:21.256Z,100372.73
2023-05-14T19:56:53.041Z,100368.42
2023-05-14T19:59:24.815Z,100361.73
2023-05-14T20:01:56.795Z,100363.14
2023-05-14T20:04:28.547Z,100357.67
2023-05-14T20:07:00.785Z,100355.63
2023-05-14T20:09:32.582Z,100350.45
2023-05-14T20:12:07.525Z,100349.04
2023-05-14T20:14:39.360Z,100346.52
2023-05-14T20:17:11.300Z,100346.02
2023-05-14T20:19:43.801Z,100340.98
2023-05-14T20:22:16.801Z,100337.92
2023-05-14T20:24:48.562Z,100333.73
2023-05-14T20:27:20.759Z,100328.26
2023-05-14T20:29:54.026Z,100329.64
2023-05-14T20:32:26.057Z,100328.83
2023-05-14T20:35:01.836Z,100327.75
2023-05-14T20:37:34.330Z,100327.00
2023-05-14T20:40:06.231Z,100322.83
2023-05-14T20:42:38.701Z,100318.23
2023-05-14T20:45:13.074Z,100314.89
2023-05-14T20:47:45.046Z,100312.38
2023-05-14T20:50:16.862Z,100308.27
2023-05-14T20:52:48.603Z,100304.17
2023-05-14T20:55:21.746Z,100298.48
2023-05-14T20:57:53.736Z,100295.05
2023-05-14T21:00:25.951Z,100290.64
2023-05-14T21:02:59.528Z,100289.06
2023-05-14T21:05:31.569Z,100285.17
2023-05-14T21:08:03.476Z,100286.81
2023-05-14T21:10:35.228Z,100283.46
2023-05-14T21:13:08.078Z,100281.77
2023-05-14T21:15:38.326Z,100284.49
2023-05-14T21:18:10.383Z,100278.76
2023-05-14T21:20:42.801Z,100276.79
2023-05-14T21:23:14.656Z,100275.75
2023-05-14T21:25:46.808Z,100275.73
2023-05-14T21:28:18.549Z,100275.64
2023-05-14T21:30:53.048Z,100261.14
2023-05-14T21:33:25.697Z,100265.67
2023-05-14T21:35:57.457Z,100265.59
2023-05-14T21:38:29.354Z,100262.46
2023-05-14T21:41:01.110Z,100255.04
2023-05-14T21:43:32.836Z,100256.33
2023-05-14T21:46:04.709Z,100252.35
2023-05-14T21:48:36.535Z,100251.39
2023-05-14T21:51:08.740Z,100253.20
2023-05-14T21:53:43.342Z,100252.92
2023-05-14T21:56:15.116Z,100249.62
2023-05-14T21:58:47.084Z,100244.45
2023-05-14T22:01:18.901Z,100235.63
2023-05-14T22:03:51.380Z,100237.27
2023-05-14T22:06:23.361Z,100231.24
2023-05-14T22:08:55.102Z,100232.75
2023-05-14T22:11:26.751Z,100221.52
2023-05-14T22:13:58.796Z,100223.83
2023-05-14T22:16:30.575Z,100222.25
2023-05-14T22:19:02.876Z,100221.85
2023-05-14T22:21:35.760Z,100213.98
2023-05-14T22:24:08.437Z,100209.02
2023-05-14T22:26:40.225Z,100208.43
2023-05-14T22:29:11.957Z,100207.81
2023-05-14T22:31:43.954Z,100205.05
2023-05-14T22:34:16.088Z,100200.40
2023-05-14T22:36:48.247Z,100192.63
2023-05-14T22:39:20.293Z,100191.55
2023-05-14T22:41:55.386Z,100187.09
2023-05-14T22:44:29.690Z,100180.83
2023-05-14T22:47:01.786Z,100179.00
2023-05-14T22:49:33.559Z,100178.23
2023-05-14T22:52:05.744Z,100175.40
2023-05-14T22:54:37.442Z,100174.10
2023-05-14T22:57:11.141Z,100171.22
2023-05-14T22:59:42.885Z,100166.88
2023-05-14T23:02:14.605Z,100162.98
2023-05-14T23:04:46.440Z,100160.13
2023-05-14T23:07:18.355Z,100151.25
2023-05-14T23:09:50.082Z,100145.75
2023-05-14T23:12:21.903Z,100145.17
2023-05-14T23:14:53.937Z,100139.67
2023-05-14T23:17:26.087Z,100136.27
2023-05-14T23:19:57.943Z,100131.90
2023-05-14T23:22:29.685Z,100128.40
2023-05-14T23:25:01.473Z,100123.63
2023-05-14T23:27:33.343Z,100125.40
2023-05-14T23:30:05.859Z,100120.48
2023-05-14T23:32:37.592Z,100115.73
2023-05-14T23:35:11.627Z,100113.50
2023-05-14T23:37:47.228Z,100114.70
2023-05-14T23:40:19.590Z,100109.40
2023-05-14T23:42:51.578Z,100105.38
2023-05-14T23:45:26.607Z,100104.52
2023-05-14T23:47:59.968Z,100103.31
2023-05-14T23:50:32.173Z,100103.79
2023-05-14T23:53:03.867Z,100094.14
2023-05-14T23:55:35.813Z,100090.85
2023-05-14T23:58:07.610Z,100090.20
